createdAt,value
2022-10-18T00:00:07.234Z,7.47
2022-10-18T00:02:35.244Z,7.05
2022-10-18T00:05:02.255Z,6.88
2022-10-18T00:07:29.817Z,6.57
2022-10-18T00:09:57.152Z,6.80
2022-10-18T00:12:24.080Z,6.50
2022-10-18T00:14:51.559Z,6.85
2022-10-18T00:17:18.502Z,6.57
2022-10-18T00:19:46.669Z,6.45
2022-10-18T00:22:13.625Z,7.13
2022-10-18T00:53:37.651Z,7.15
2022-10-18T00:56:04.870Z,7.15
2022-10-18T00:58:32.114Z,7.07
2022-10-18T01:00:59.112Z,6.85
2022-10-18T01:03:26.258Z,6.78
2022-10-18T01:05:53.344Z,6.68
2022-10-18T01:08:31.266Z,6.47
2022-10-18T01:11:07.392Z,7.22
2022-10-18T01:13:58.435Z,6.65
2022-10-18T01:16:54.591Z,7.07
2022-10-18T01:20:02.022Z,7.05
2022-10-18T01:22:32.775Z,6.82
2022-10-18T01:25:12.667Z,7.25
2022-10-18T01:28:03.222Z,7.60
2022-10-18T01:30:51.473Z,7.07
2022-10-18T01:33:36.738Z,7.35
2022-10-18T01:36:10.436Z,8.13
2022-10-18T01:38:39.227Z,7.97
2022-10-18T01:41:11.735Z,7.97
2022-10-18T01:43:43.726Z,7.82
2022-10-18T01:46:13.349Z,7.70
2022-10-18T01:48:40.283Z,7.65
2022-10-18T01:51:09.030Z,7.65
2022-10-18T01:53:36.111Z,8.00
2022-10-18T01:56:09.265Z,6.97
2022-10-18T01:59:15.639Z,7.85
2022-10-18T02:01:53.545Z,7.93
2022-10-18T02:04:33.755Z,7.53
2022-10-18T02:07:29.448Z,8.20
2022-10-18T02:10:01.870Z,7.95
2022-10-18T02:12:32.153Z,7.97
2022-10-18T02:15:01.576Z,8.10
2022-10-18T02:17:30.982Z,7.72
2022-10-18T02:20:01.135Z,8.43
2022-10-18T02:22:32.587Z,7.90
2022-10-18T02:25:03.586Z,8.70
2022-10-18T02:27:30.804Z,8.10
2022-10-18T02:29:58.361Z,8.55
2022-10-18T02:32:34.274Z,8.35
2022-10-18T02:35:10.827Z,9.25
2022-10-18T02:40:09.075Z,7.95
2022-10-18T02:42:46.701Z,8.50
2022-10-18T02:45:15.056Z,8.57
2022-10-18T02:47:42.326Z,8.82
2022-10-18T02:50:09.726Z,10.80
2022-10-18T02:52:37.271Z,7.78
2022-10-18T02:55:05.818Z,4.30
2022-10-18T02:57:33.270Z,2.50
2022-10-18T03:00:00.868Z,1.90
2022-10-18T03:02:27.702Z,1.75
2022-10-18T03:04:54.577Z,1.70
2022-10-18T03:07:21.845Z,1.58
2022-10-18T03:09:48.682Z,1.80
2022-10-18T03:12:15.840Z,1.83
2022-10-18T03:14:42.777Z,1.98
2022-10-18T03:17:09.968Z,1.48
2022-10-18T03:19:38.659Z,1.38
2022-10-18T03:22:05.941Z,1.67
2022-10-18T03:24:32.952Z,1.33
2022-10-18T03:26:59.687Z,1.65
2022-10-18T03:29:26.642Z,1.60
2022-10-18T03:31:53.455Z,1.67
2022-10-18T03:34:20.797Z,1.75
2022-10-18T03:36:47.869Z,2.05
2022-10-18T03:39:14.893Z,1.65
2022-10-18T03:41:41.928Z,1.90
2022-10-18T03:44:09.139Z,1.90
2022-10-18T03:46:36.138Z,1.90
2022-10-18T03:49:03.405Z,1.85
2022-10-18T03:51:30.681Z,1.83
2022-10-18T03:53:58.028Z,1.60
2022-10-18T03:56:25.310Z,1.58
2022-10-18T03:58:52.298Z,2.05
2022-10-18T04:01:19.405Z,2.20
2022-10-18T04:03:46.801Z,4.45
2022-10-18T04:06:14.191Z,2.17
2022-10-18T04:08:41.234Z,2.10
2022-10-18T04:11:08.608Z,2.00
2022-10-18T04:13:35.973Z,2.20
2022-10-18T04:16:03.365Z,2.20
2022-10-18T04:18:30.916Z,2.00
2022-10-18T04:20:58.264Z,2.15
2022-10-18T04:23:25.403Z,2.15
2022-10-18T04:25:52.520Z,2.40
2022-10-18T04:28:19.793Z,2.55
2022-10-18T04:30:53.674Z,2.50
2022-10-18T04:33:21.363Z,2.58
2022-10-18T04:35:51.887Z,2.65
2022-10-18T04:38:20.468Z,2.78
2022-10-18T04:40:47.589Z,2.63
2022-10-18T04:43:15.194Z,2.60
2022-10-18T04:45:42.210Z,2.20
2022-10-18T04:48:09.263Z,2.60
2022-10-18T04:50:36.613Z,2.97
2022-10-18T04:53:03.932Z,2.65
2022-10-18T04:55:31.539Z,2.60
2022-10-18T04:57:58.578Z,3.10
2022-10-18T05:00:25.852Z,2.50
2022-10-18T05:02:59.050Z,2.53
2022-10-18T05:05:37.907Z,2.67
2022-10-18T05:08:13.708Z,2.47
2022-10-18T05:10:41.583Z,2.33
2022-10-18T05:13:08.633Z,2.50
2022-10-18T05:15:35.884Z,2.55
2022-10-18T05:18:03.029Z,2.75
2022-10-18T05:20:30.199Z,2.45
2022-10-18T05:22:58.469Z,2.90
2022-10-18T05:25:26.153Z,2.35
2022-10-18T05:27:53.055Z,2.30
2022-10-18T05:30:21.051Z,2.50
2022-10-18T05:32:48.186Z,2.60
2022-10-18T05:35:15.360Z,2.47
2022-10-18T05:37:42.550Z,2.60
2022-10-18T05:40:10.065Z,3.05
2022-10-18T05:42:37.078Z,2.28
2022-10-18T05:45:04.764Z,1.85
2022-10-18T05:47:31.758Z,2.00
2022-10-18T05:49:58.759Z,2.20
2022-10-18T05:52:26.212Z,2.10
2022-10-18T05:54:53.459Z,1.90
2022-10-18T05:57:20.510Z,2.15
2022-10-18T05:59:47.685Z,1.75
2022-10-18T06:02:14.822Z,2.72
2022-10-18T06:04:42.033Z,2.30
2022-10-18T06:07:12.723Z,1.95
2022-10-18T06:09:39.952Z,2.40
2022-10-18T06:12:08.958Z,2.17
2022-10-18T06:14:37.134Z,2.05
2022-10-18T06:17:04.690Z,2.60
2022-10-18T06:19:32.365Z,2.38
2022-10-18T06:21:59.382Z,2.35
2022-10-18T06:24:27.562Z,2.20
2022-10-18T06:26:54.802Z,2.10
2022-10-18T06:29:21.877Z,2.40
2022-10-18T06:31:49.143Z,5.00
2022-10-18T06:34:15.966Z,3.75
2022-10-18T06:36:42.959Z,2.83
2022-10-18T06:39:10.783Z,2.50
2022-10-18T06:41:37.713Z,2.65
2022-10-18T06:44:13.696Z,2.70
2022-10-18T06:46:47.989Z,2.30
2022-10-18T06:49:18.978Z,2.53
2022-10-18T06:51:46.491Z,2.67
2022-10-18T06:54:18.141Z,2.55
2022-10-18T06:56:45.729Z,2.58
2022-10-18T06:59:12.829Z,2.55
2022-10-18T07:01:39.963Z,2.58
2022-10-18T07:04:07.386Z,2.97
2022-10-18T07:06:34.728Z,2.90
2022-10-18T07:09:03.231Z,2.85
2022-10-18T07:11:30.581Z,3.45
2022-10-18T07:14:05.011Z,2.88
2022-10-18T07:16:33.766Z,3.00
2022-10-18T07:19:00.944Z,6.03
2022-10-18T07:21:28.284Z,4.25
2022-10-18T07:23:56.248Z,3.20
2022-10-18T07:26:29.350Z,4.13
2022-10-18T07:29:00.623Z,3.80
2022-10-18T07:31:28.781Z,4.25
2022-10-18T07:33:55.691Z,4.00
2022-10-18T07:36:22.624Z,4.28
2022-10-18T07:38:51.938Z,4.20
2022-10-18T07:41:19.230Z,4.30
2022-10-18T07:43:48.464Z,4.28
2022-10-18T07:46:16.546Z,4.00
2022-10-18T07:48:43.496Z,4.65
2022-10-18T07:51:11.227Z,4.50
2022-10-18T07:53:38.322Z,3.80
2022-10-18T07:56:09.748Z,4.10
2022-10-18T07:58:36.900Z,3.75
2022-10-18T08:01:07.559Z,3.70
2022-10-18T08:03:35.659Z,3.35
2022-10-18T08:06:03.345Z,3.50
2022-10-18T08:08:30.597Z,3.35
2022-10-18T08:11:07.509Z,3.00
2022-10-18T08:13:34.369Z,3.10
2022-10-18T08:16:07.146Z,3.60
2022-10-18T08:18:34.714Z,3.72
2022-10-18T08:21:02.368Z,3.40
2022-10-18T08:23:29.474Z,3.90
2022-10-18T08:25:56.546Z,3.90
2022-10-18T08:28:23.621Z,3.65
2022-10-18T08:30:51.902Z,3.20
2022-10-18T08:33:18.915Z,3.08
2022-10-18T08:35:58.315Z,3.10
2022-10-18T08:38:25.305Z,3.38
2022-10-18T08:40:52.621Z,2.72
2022-10-18T08:43:24.219Z,2.40
2022-10-18T08:45:53.572Z,2.40
2022-10-18T08:48:38.935Z,2.13
2022-10-18T08:51:12.996Z,2.00
2022-10-18T08:54:12.802Z,2.00
2022-10-18T08:56:45.628Z,2.05
2022-10-18T08:59:13.651Z,2.28
2022-10-18T09:01:52.740Z,2.22
2022-10-18T09:04:39.937Z,2.80
2022-10-18T09:07:06.903Z,2.63
2022-10-18T09:09:47.117Z,3.22
2022-10-18T09:12:29.289Z,2.85
2022-10-18T09:15:20.455Z,3.00
2022-10-18T09:17:56.317Z,2.72
2022-10-18T09:20:32.959Z,3.10
2022-10-18T09:23:05.612Z,3.00
2022-10-18T09:25:37.371Z,2.90
2022-10-18T09:28:16.234Z,2.80
2022-10-18T09:31:06.324Z,1.92
2022-10-18T09:34:08.759Z,1.70
2022-10-18T09:36:38.739Z,1.50
2022-10-18T09:39:18.658Z,1.52
2022-10-18T09:42:11.398Z,1.55
2022-10-18T09:45:08.620Z,1.40
2022-10-18T09:47:41.420Z,1.40
2022-10-18T09:50:37.240Z,1.70
2022-10-18T09:53:12.899Z,1.50
2022-10-18T09:56:09.714Z,1.38
2022-10-18T09:58:41.737Z,1.08
2022-10-18T10:01:09.893Z,1.08
2022-10-18T10:03:36.936Z,1.00
2022-10-18T10:06:13.042Z,1.05
2022-10-18T10:08:47.685Z,0.80
2022-10-18T10:11:30.696Z,0.85
2022-10-18T10:14:08.934Z,0.60
2022-10-18T10:16:52.427Z,0.80
2022-10-18T10:19:47.669Z,0.80
2022-10-18T10:22:14.824Z,0.70
2022-10-18T10:24:49.086Z,0.75
2022-10-18T10:27:41.144Z,0.60
2022-10-18T10:30:24.148Z,0.88
2022-10-18T10:32:52.343Z,0.57
2022-10-18T10:35:41.297Z,0.77
2022-10-18T10:38:26.229Z,0.52
2022-10-18T10:40:53.710Z,0.70
2022-10-18T10:43:37.016Z,0.63
2022-10-18T10:46:15.252Z,0.68
2022-10-18T10:48:49.475Z,0.50
2022-10-18T10:51:28.266Z,0.85
2022-10-18T10:54:13.466Z,0.95
2022-10-18T10:56:58.126Z,0.60
2022-10-18T10:59:28.212Z,0.40
2022-10-18T11:02:13.955Z,0.50
2022-10-18T11:04:42.155Z,0.50
2022-10-18T11:07:27.753Z,0.60
2022-10-18T11:10:12.525Z,0.50
2022-10-18T11:12:54.519Z,0.60
2022-10-18T11:15:25.295Z,0.73
2022-10-18T11:18:17.377Z,0.60
2022-10-18T11:20:54.822Z,0.40
2022-10-18T11:23:25.683Z,0.30
2022-10-18T11:26:02.948Z,0.40
2022-10-18T11:29:07.723Z,0.38
2022-10-18T11:31:53.445Z,0.40
2022-10-18T11:34:56.990Z,0.30
2022-10-18T11:37:47.810Z,0.30
2022-10-18T11:40:29.875Z,0.45
2022-10-18T11:43:11.776Z,0.30
2022-10-18T11:46:11.768Z,0.40
2022-10-18T11:48:51.960Z,0.40
2022-10-18T11:51:34.184Z,0.30
2022-10-18T11:54:32.141Z,0.30
2022-10-18T11:57:05.028Z,0.30
2022-10-18T11:59:47.920Z,0.30
2022-10-18T12:02:37.971Z,0.25
2022-10-18T12:05:24.317Z,0.30
2022-10-18T12:07:58.485Z,0.50
2022-10-18T12:10:39.320Z,0.52
2022-10-18T12:13:29.001Z,0.30
2022-10-18T12:15:56.207Z,0.38
2022-10-18T12:18:26.188Z,0.40
2022-10-18T12:20:57.978Z,0.70
2022-10-18T12:23:42.928Z,1.00
2022-10-18T12:26:11.384Z,0.85
2022-10-18T12:29:03.229Z,1.50
2022-10-18T12:32:01.653Z,0.70
2022-10-18T12:34:43.056Z,0.40
2022-10-18T12:37:10.109Z,0.22
2022-10-18T12:40:09.823Z,0.50
2022-10-18T12:42:46.665Z,0.75
2022-10-18T12:45:13.867Z,0.60
2022-10-18T12:47:41.318Z,0.40
2022-10-18T12:50:28.758Z,0.60
2022-10-18T12:53:12.424Z,0.40
2022-10-18T12:55:44.641Z,0.50
2022-10-18T12:58:14.737Z,1.10
2022-10-18T13:00:44.353Z,0.82
2022-10-18T13:03:17.381Z,0.60
2022-10-18T13:05:56.605Z,0.68
2022-10-18T13:08:37.978Z,0.60
2022-10-18T13:11:10.903Z,0.40
2022-10-18T13:17:06.360Z,0.40
2022-10-18T13:19:47.206Z,0.32
2022-10-18T13:23:07.889Z,0.57
2022-10-18T13:26:02.394Z,0.77
2022-10-18T13:28:37.958Z,0.60
2022-10-18T13:31:36.589Z,0.63
2022-10-18T13:34:25.072Z,1.70
2022-10-18T13:37:24.198Z,0.90
2022-10-18T13:40:12.035Z,0.80
2022-10-18T13:42:38.958Z,0.68
2022-10-18T13:45:31.101Z,0.57
2022-10-18T13:48:29.823Z,0.75
2022-10-18T13:51:23.928Z,0.60
2022-10-18T13:54:21.985Z,0.70
2022-10-18T13:57:04.314Z,1.00
2022-10-18T14:00:02.888Z,0.55
2022-10-18T14:02:56.958Z,0.90
2022-10-18T14:05:57.410Z,0.70
2022-10-18T14:11:33.711Z,1.10
2022-10-18T14:14:34.328Z,1.02
2022-10-18T14:17:25.644Z,0.90
2022-10-18T14:20:04.467Z,0.90
2022-10-18T14:22:36.488Z,0.93
2022-10-18T14:25:03.681Z,1.08
2022-10-18T14:27:32.979Z,0.85
2022-10-18T14:30:18.557Z,0.70
2022-10-18T14:32:51.843Z,0.80
2022-10-18T14:35:32.553Z,0.98
2022-10-18T14:38:01.047Z,0.90
2022-10-18T14:40:39.648Z,1.30
2022-10-18T14:43:11.878Z,1.40
2022-10-18T14:45:39.693Z,1.10
2022-10-18T14:48:18.191Z,1.50
2022-10-18T14:50:49.133Z,0.80
2022-10-18T14:53:25.400Z,1.27
2022-10-18T14:55:58.070Z,0.95
2022-10-18T14:58:24.993Z,0.90
2022-10-18T15:00:51.992Z,1.00
2022-10-18T15:03:19.425Z,0.90
2022-10-18T15:05:59.585Z,0.88
2022-10-18T15:08:57.458Z,1.00
2022-10-18T15:11:26.335Z,1.10
2022-10-18T15:14:03.002Z,0.95
2022-10-18T15:16:31.950Z,1.00
2022-10-18T15:19:22.043Z,1.08
2022-10-18T15:22:31.210Z,1.20
2022-10-18T15:25:18.171Z,1.10
2022-10-18T15:27:49.599Z,1.00
2022-10-18T15:30:22.107Z,1.08
2022-10-18T15:33:00.567Z,1.15
2022-10-18T15:35:31.123Z,1.30
2022-10-18T15:38:03.697Z,1.50
2022-10-18T15:40:34.619Z,1.35
2022-10-18T15:43:05.934Z,1.30
2022-10-18T15:45:37.085Z,1.77
2022-10-18T15:48:09.447Z,1.30
2022-10-18T15:50:38.515Z,1.63
2022-10-18T15:53:20.965Z,1.30
2022-10-18T15:55:49.266Z,1.75
2022-10-18T15:58:39.251Z,1.70
2022-10-18T16:01:22.898Z,1.55
2022-10-18T16:03:51.463Z,1.67
2022-10-18T16:06:18.746Z,1.45
2022-10-18T16:08:51.749Z,2.28
2022-10-18T16:11:24.124Z,2.25
2022-10-18T16:13:55.109Z,1.98
2022-10-18T16:16:27.544Z,2.47
2022-10-18T16:18:54.574Z,5.15
2022-10-18T16:21:30.654Z,6.65
2022-10-18T16:23:58.173Z,8.82
2022-10-18T16:26:26.054Z,5.15
2022-10-18T16:28:54.235Z,6.30
2022-10-18T16:31:24.103Z,5.60
2022-10-18T16:33:52.534Z,4.53
2022-10-18T16:36:27.314Z,5.45
2022-10-18T16:38:55.130Z,4.43
2022-10-18T16:41:22.822Z,4.88
2022-10-18T16:43:51.229Z,4.80
2022-10-18T16:46:21.124Z,7.25
2022-10-18T16:48:49.541Z,4.47
2022-10-18T16:51:17.166Z,6.72
2022-10-18T16:53:44.080Z,6.80
2022-10-18T16:56:19.727Z,4.93
2022-10-18T16:58:47.468Z,3.90
2022-10-18T17:01:17.190Z,5.50
2022-10-18T17:03:45.305Z,4.47
2022-10-18T17:06:24.327Z,5.43
2022-10-18T17:08:52.221Z,3.70
2022-10-18T17:11:20.786Z,3.33
2022-10-18T17:13:47.724Z,3.85
2022-10-18T17:16:23.054Z,3.70
2022-10-18T17:18:50.040Z,4.07
2022-10-18T17:21:17.095Z,3.72
2022-10-18T17:23:43.878Z,3.50
2022-10-18T17:26:28.330Z,3.97
2022-10-18T17:29:01.898Z,4.35
2022-10-18T17:31:30.206Z,4.30
2022-10-18T17:33:58.782Z,4.80
2022-10-18T17:36:26.316Z,4.80
2022-10-18T17:38:54.216Z,5.72
2022-10-18T17:41:21.575Z,4.80
2022-10-18T17:43:48.811Z,5.07
2022-10-18T17:46:17.835Z,5.40
2022-10-18T17:48:45.302Z,7.97
2022-10-18T17:51:14.793Z,6.88
2022-10-18T17:53:41.862Z,7.20
2022-10-18T17:56:09.867Z,6.22
2022-10-18T17:58:36.767Z,7.28
2022-10-18T18:01:09.662Z,6.45
2022-10-18T18:03:36.728Z,6.57
2022-10-18T18:06:18.681Z,6.63
2022-10-18T18:08:45.975Z,6.13
2022-10-18T18:11:13.254Z,5.75
2022-10-18T18:13:40.050Z,6.20
2022-10-18T18:16:12.212Z,6.07
2022-10-18T18:18:39.086Z,5.63
2022-10-18T18:21:06.050Z,5.85
2022-10-18T18:23:32.803Z,7.10
2022-10-18T18:26:00.399Z,6.97
2022-10-18T18:28:27.488Z,7.15
2022-10-18T18:30:54.355Z,5.93
2022-10-18T18:33:21.178Z,6.30
2022-10-18T18:35:56.061Z,5.90
2022-10-18T18:38:23.185Z,5.32
2022-10-18T18:40:50.031Z,5.68
2022-10-18T18:43:22.986Z,5.70
2022-10-18T18:45:51.868Z,5.63
2022-10-18T18:48:19.933Z,4.78
2022-10-18T18:50:51.273Z,5.40
2022-10-18T18:53:19.162Z,5.25
2022-10-18T18:55:46.205Z,5.70
2022-10-18T18:58:13.046Z,5.53
2022-10-18T19:00:44.277Z,5.15
2022-10-18T19:03:17.481Z,5.55
2022-10-18T19:05:44.315Z,5.30
2022-10-18T19:08:11.120Z,5.50
2022-10-18T19:10:38.194Z,6.45
2022-10-18T19:13:05.006Z,19.80
2022-10-18T19:15:31.872Z,24.35
2022-10-18T19:17:58.610Z,20.63
2022-10-18T19:20:25.353Z,12.35
2022-10-18T19:22:52.127Z,15.48
2022-10-18T19:25:21.102Z,9.18
2022-10-18T19:27:50.209Z,7.75
2022-10-18T19:30:17.063Z,7.15
2022-10-18T19:32:43.951Z,7.13
2022-10-18T19:35:11.188Z,5.93
2022-10-18T19:37:38.256Z,7.68
2022-10-18T19:40:05.909Z,8.15
2022-10-18T19:42:33.237Z,8.85
2022-10-18T19:45:00.519Z,8.02
2022-10-18T19:47:27.653Z,8.38
2022-10-18T19:49:54.634Z,7.95
2022-10-18T19:52:21.671Z,8.23
2022-10-18T19:54:49.638Z,9.02
2022-10-18T19:57:16.791Z,8.77
2022-10-18T19:59:44.011Z,8.82
2022-10-18T20:02:15.485Z,8.88
2022-10-18T20:04:42.758Z,9.13
2022-10-18T20:07:09.761Z,8.32
2022-10-18T20:09:36.803Z,10.02
2022-10-18T20:12:04.453Z,9.93
2022-10-18T20:14:31.531Z,9.35
2022-10-18T20:16:58.774Z,10.18
2022-10-18T20:19:26.060Z,9.05
2022-10-18T20:21:55.781Z,8.60
2022-10-18T20:24:22.915Z,9.30
2022-10-18T20:26:50.259Z,8.45
2022-10-18T20:29:17.467Z,10.70
2022-10-18T20:31:44.577Z,10.10
2022-10-18T20:34:12.168Z,10.15
2022-10-18T20:36:40.878Z,9.93
2022-10-18T20:39:08.286Z,9.85
2022-10-18T20:41:38.606Z,9.20
2022-10-18T20:44:08.652Z,10.13
2022-10-18T20:46:37.733Z,10.50
2022-10-18T20:49:06.609Z,10.43
2022-10-18T20:51:35.238Z,10.63
2022-10-18T20:56:34.583Z,11.70
2022-10-18T20:59:02.279Z,12.10
2022-10-18T21:01:32.043Z,11.82
2022-10-18T21:04:02.410Z,11.10
2022-10-18T21:06:32.006Z,10.23
2022-10-18T21:09:03.243Z,10.45
2022-10-18T21:11:31.817Z,10.55
2022-10-18T21:14:02.996Z,11.27
2022-10-18T21:16:31.911Z,11.35
2022-10-18T21:19:07.139Z,11.38
2022-10-18T21:21:34.892Z,10.57
2022-10-18T21:24:05.363Z,10.38
2022-10-18T21:26:35.662Z,11.40
2022-10-18T21:29:03.700Z,11.15
2022-10-18T21:31:36.201Z,11.15
2022-10-18T21:34:05.912Z,11.57
2022-10-18T21:36:36.381Z,11.02
2022-10-18T21:39:05.947Z,11.02
2022-10-18T21:41:33.536Z,10.52
2022-10-18T21:44:05.709Z,10.73
2022-10-18T21:46:35.741Z,10.63
2022-10-18T21:49:02.828Z,11.02
2022-10-18T21:51:29.907Z,10.32
2022-10-18T21:53:58.672Z,10.45
2022-10-18T21:56:29.409Z,11.18
2022-10-18T21:58:56.664Z,11.52
2022-10-18T22:01:32.727Z,11.60
2022-10-18T22:04:01.720Z,11.18
2022-10-18T22:06:32.290Z,11.95
2022-10-18T22:09:03.521Z,11.27
2022-10-18T22:11:39.977Z,11.90
2022-10-18T22:14:07.585Z,12.20
2022-10-18T22:16:34.694Z,12.30
2022-10-18T22:19:03.463Z,12.50
2022-10-18T22:21:30.866Z,13.27
2022-10-18T22:23:59.295Z,13.00
2022-10-18T22:26:32.304Z,14.20
2022-10-18T22:29:08.781Z,14.80
2022-10-18T22:34:06.327Z,14.35
2022-10-18T22:36:34.204Z,15.45
2022-10-18T22:39:01.755Z,14.95
2022-10-18T22:41:28.617Z,15.05
2022-10-18T22:43:57.351Z,15.73
2022-10-18T22:46:27.018Z,17.65
2022-10-18T22:48:54.056Z,17.63
2022-10-18T22:51:21.508Z,18.83
2022-10-18T22:53:48.554Z,17.35
2022-10-18T22:56:20.701Z,16.73
2022-10-18T22:58:50.740Z,16.98
2022-10-18T23:01:21.708Z,16.40
2022-10-18T23:03:57.122Z,16.08
2022-10-18T23:06:32.781Z,15.95
2022-10-18T23:09:02.185Z,17.05
2022-10-18T23:11:29.561Z,16.15
2022-10-18T23:13:56.821Z,15.70
2022-10-18T23:16:24.558Z,16.50
2022-10-18T23:18:55.440Z,16.10
2022-10-18T23:21:24.429Z,16.38
2022-10-18T23:23:52.746Z,16.55
2022-10-18T23:26:23.301Z,16.10
2022-10-18T23:28:51.656Z,16.45
2022-10-18T23:31:41.554Z,16.70
2022-10-18T23:34:10.044Z,18.20
2022-10-18T23:36:37.317Z,17.75
2022-10-18T23:39:04.763Z,18.73
2022-10-18T23:41:32.211Z,18.40
2022-10-18T23:43:59.149Z,16.98
2022-10-18T23:46:26.037Z,15.80
2022-10-18T23:48:52.997Z,16.70
2022-10-18T23:51:20.037Z,16.65
2022-10-18T23:53:46.977Z,16.42
2022-10-18T23:56:15.723Z,15.77
2022-10-18T23:58:43.924Z,17.38
